createdAt,value
2019-05-25T00:00:09.427Z,2.40
2019-05-25T00:02:38.361Z,2.43
2019-05-25T00:05:07.589Z,2.50
2019-05-25T00:07:36.596Z,2.33
2019-05-25T00:10:07.558Z,2.87
2019-05-25T00:12:36.581Z,3.00
2019-05-25T00:15:08.445Z,2.40
2019-05-25T00:17:37.366Z,2.23
2019-05-25T00:20:06.782Z,2.90
2019-05-25T00:22:35.706Z,2.40
2019-05-25T00:25:06.377Z,2.53
2019-05-25T00:27:35.300Z,2.40
2019-05-25T00:30:06.430Z,2.33
2019-05-25T00:32:35.367Z,2.20
2019-05-25T00:35:06.139Z,2.60
2019-05-25T00:37:35.078Z,2.50
2019-05-25T00:40:06.123Z,2.40
2019-05-25T00:42:35.118Z,2.73
2019-05-25T00:45:05.518Z,2.10
2019-05-25T00:47:34.459Z,2.60
2019-05-25T00:50:05.053Z,2.17
2019-05-25T00:52:34.005Z,2.70
2019-05-25T00:55:03.959Z,2.53
2019-05-25T00:57:32.903Z,2.40
2019-05-25T01:00:01.842Z,2.03
2019-05-25T01:02:30.770Z,2.27
2019-05-25T01:04:59.714Z,2.37
2019-05-25T01:07:28.650Z,2.60
2019-05-25T01:09:57.594Z,2.50
2019-05-25T01:12:26.616Z,2.80
2019-05-25T01:14:55.598Z,2.70
2019-05-25T01:17:24.522Z,2.40
2019-05-25T01:19:53.524Z,2.50
2019-05-25T01:22:22.446Z,2.50
2019-05-25T01:24:51.390Z,2.57
2019-05-25T01:27:20.398Z,2.83
2019-05-25T01:29:49.409Z,2.50
2019-05-25T01:32:18.367Z,2.40
2019-05-25T01:34:47.282Z,2.13
2019-05-25T01:37:16.242Z,2.70
2019-05-25T01:39:45.162Z,2.83
2019-05-25T01:42:14.109Z,2.73
2019-05-25T01:44:43.043Z,2.80
2019-05-25T01:47:12.070Z,2.53
2019-05-25T01:49:41.050Z,2.60
2019-05-25T01:52:10.002Z,2.87
2019-05-25T01:54:38.926Z,2.63
2019-05-25T01:57:07.874Z,2.30
2019-05-25T01:59:36.898Z,2.57
2019-05-25T02:02:05.943Z,2.23
2019-05-25T02:04:34.952Z,2.60
2019-05-25T02:07:04.290Z,2.27
2019-05-25T02:09:33.242Z,2.27
2019-05-25T02:12:02.253Z,2.43
2019-05-25T02:14:31.343Z,2.80
2019-05-25T02:17:00.299Z,2.20
2019-05-25T02:19:29.225Z,2.40
2019-05-25T02:21:58.309Z,2.60
2019-05-25T02:24:27.242Z,2.50
2019-05-25T02:26:56.165Z,2.53
2019-05-25T02:29:25.240Z,2.90
2019-05-25T02:31:54.150Z,2.40
2019-05-25T02:34:23.098Z,2.77
2019-05-25T02:36:52.036Z,2.20
2019-05-25T02:39:21.009Z,2.40
2019-05-25T02:41:49.995Z,2.73
2019-05-25T02:44:18.961Z,2.70
2019-05-25T02:46:47.882Z,2.67
2019-05-25T02:49:17.007Z,2.23
2019-05-25T02:51:45.925Z,2.70
2019-05-25T02:54:14.901Z,2.60
2019-05-25T02:56:43.818Z,2.90
2019-05-25T02:59:12.850Z,2.80
2019-05-25T03:01:41.860Z,3.00
2019-05-25T03:04:10.949Z,3.37
2019-05-25T03:06:40.814Z,3.40
2019-05-25T03:09:10.014Z,3.23
2019-05-25T03:11:40.431Z,3.03
2019-05-25T03:14:09.394Z,3.00
2019-05-25T03:16:38.437Z,3.20
2019-05-25T03:19:07.390Z,3.30
2019-05-25T03:21:36.323Z,3.27
2019-05-25T03:24:05.346Z,3.10
2019-05-25T03:26:34.490Z,3.33
2019-05-25T03:29:03.599Z,3.40
2019-05-25T03:31:32.526Z,3.30
2019-05-25T03:34:01.485Z,3.30
2019-05-25T03:36:30.422Z,3.70
2019-05-25T03:38:59.355Z,3.80
2019-05-25T03:41:28.378Z,4.80
2019-05-25T03:43:57.374Z,4.23
2019-05-25T03:46:26.324Z,4.00
2019-05-25T03:48:55.254Z,3.93
2019-05-25T03:51:24.198Z,4.03
2019-05-25T03:53:53.146Z,4.10
2019-05-25T03:56:22.267Z,4.40
2019-05-25T03:58:51.203Z,4.30
2019-05-25T04:01:20.268Z,3.63
2019-05-25T04:03:49.196Z,4.70
2019-05-25T04:06:18.150Z,4.27
2019-05-25T04:08:47.070Z,4.50
2019-05-25T04:11:16.027Z,4.37
2019-05-25T04:13:44.961Z,3.80
2019-05-25T04:16:14.039Z,4.37
2019-05-25T04:18:42.963Z,4.23
2019-05-25T04:21:11.919Z,3.73
2019-05-25T04:23:40.846Z,4.13
2019-05-25T04:26:21.861Z,3.80
2019-05-25T04:28:40.448Z,3.53
2019-05-25T04:31:09.437Z,4.03
2019-05-25T04:33:38.395Z,4.37
2019-05-25T04:36:07.366Z,3.77
2019-05-25T04:38:36.296Z,4.13
2019-05-25T04:41:05.253Z,3.80
2019-05-25T04:43:34.179Z,3.43
2019-05-25T04:46:03.211Z,3.83
2019-05-25T04:48:33.810Z,4.60
2019-05-25T04:51:02.886Z,4.40
2019-05-25T04:53:31.849Z,3.57
2019-05-25T04:56:00.770Z,3.60
2019-05-25T04:58:29.715Z,4.13
2019-05-25T05:00:58.643Z,3.70
2019-05-25T05:03:27.586Z,2.80
2019-05-25T05:05:56.501Z,3.40
2019-05-25T05:08:26.258Z,3.03
2019-05-25T05:10:55.195Z,3.10
2019-05-25T05:13:24.141Z,2.87
2019-05-25T05:15:53.072Z,2.60
2019-05-25T05:18:22.014Z,3.00
2019-05-25T05:20:50.954Z,3.10
2019-05-25T05:23:19.913Z,2.57
2019-05-25T05:25:48.859Z,2.60
2019-05-25T05:28:17.823Z,2.80
2019-05-25T05:30:46.770Z,2.97
2019-05-25T05:33:15.783Z,3.47
2019-05-25T05:35:46.170Z,2.73
2019-05-25T05:38:15.771Z,3.00
2019-05-25T05:40:45.638Z,2.90
2019-05-25T05:43:16.158Z,2.90
2019-05-25T05:45:46.689Z,3.87
2019-05-25T05:48:17.346Z,6.57
2019-05-25T05:50:47.435Z,4.33
2019-05-25T05:53:18.763Z,4.20
2019-05-25T05:55:47.713Z,4.73
2019-05-25T05:58:16.633Z,5.50
2019-05-25T06:00:46.445Z,3.33
2019-05-25T06:03:15.368Z,2.60
2019-05-25T06:05:44.698Z,2.90
2019-05-25T06:08:13.795Z,4.13
2019-05-25T06:10:42.729Z,4.20
2019-05-25T06:13:11.663Z,3.00
2019-05-25T06:15:40.621Z,2.77
2019-05-25T06:18:09.551Z,2.83
2019-05-25T06:20:39.275Z,5.20
2019-05-25T06:23:12.154Z,2.90
2019-05-25T06:25:38.847Z,5.43
2019-05-25T06:28:07.770Z,4.63
2019-05-25T06:30:36.843Z,10.10
2019-05-25T06:33:05.939Z,7.80
2019-05-25T06:35:34.906Z,3.60
2019-05-25T06:38:03.897Z,8.17
2019-05-25T06:40:32.920Z,4.73
2019-05-25T06:43:01.862Z,3.40
2019-05-25T06:45:30.984Z,3.77
2019-05-25T06:47:59.903Z,4.00
2019-05-25T06:50:28.921Z,3.57
2019-05-25T06:52:58.228Z,4.40
2019-05-25T06:55:27.272Z,3.83
2019-05-25T06:57:56.200Z,4.17
2019-05-25T07:00:25.564Z,4.07
2019-05-25T07:02:54.578Z,3.80
2019-05-25T07:05:23.599Z,3.70
2019-05-25T07:07:54.738Z,3.90
2019-05-25T07:10:23.339Z,3.10
2019-05-25T07:12:52.297Z,3.73
2019-05-25T07:15:21.583Z,5.60
2019-05-25T07:17:50.634Z,4.33
2019-05-25T07:20:20.627Z,3.20
2019-05-25T07:22:49.584Z,3.67
2019-05-25T07:25:20.322Z,3.13
2019-05-25T07:27:59.084Z,3.63
2019-05-25T07:30:20.569Z,2.90
2019-05-25T07:32:49.523Z,3.93
2019-05-25T07:35:18.583Z,3.67
2019-05-25T07:37:47.522Z,3.17
2019-05-25T07:40:16.997Z,3.10
2019-05-25T07:42:45.983Z,2.97
2019-05-25T07:45:15.230Z,2.70
2019-05-25T07:47:44.172Z,3.60
2019-05-25T07:50:13.830Z,3.43
2019-05-25T07:52:42.781Z,2.83
2019-05-25T07:55:11.794Z,2.70
2019-05-25T07:57:40.748Z,2.43
2019-05-25T08:00:10.120Z,3.43
2019-05-25T08:02:39.083Z,2.73
2019-05-25T08:05:08.374Z,2.63
2019-05-25T08:07:37.318Z,5.80
2019-05-25T08:10:06.929Z,4.20
2019-05-25T08:12:36.052Z,3.10
2019-05-25T08:15:06.114Z,2.57
2019-05-25T08:17:35.059Z,2.03
2019-05-25T08:20:05.957Z,3.30
2019-05-25T08:22:34.961Z,2.70
2019-05-25T08:25:06.161Z,2.27
2019-05-25T08:27:35.082Z,2.37
2019-05-25T08:30:08.770Z,2.40
2019-05-25T08:32:37.755Z,3.53
2019-05-25T08:35:07.250Z,4.07
2019-05-25T08:37:36.350Z,2.47
2019-05-25T08:40:06.988Z,3.23
2019-05-25T08:42:35.923Z,4.53
2019-05-25T08:45:09.401Z,3.57
2019-05-25T08:47:38.358Z,2.87
2019-05-25T08:50:08.158Z,2.73
2019-05-25T08:52:37.533Z,2.40
2019-05-25T08:55:07.522Z,2.73
2019-05-25T08:57:36.526Z,2.47
2019-05-25T09:00:06.411Z,2.20
2019-05-25T09:02:35.326Z,2.60
2019-05-25T09:05:07.594Z,2.47
2019-05-25T09:07:36.593Z,3.00
2019-05-25T09:10:08.012Z,3.37
2019-05-25T09:12:37.007Z,3.20
2019-05-25T09:15:06.727Z,2.40
2019-05-25T09:17:35.723Z,3.30
2019-05-25T09:20:09.161Z,2.57
2019-05-25T09:22:38.419Z,3.30
2019-05-25T09:25:08.726Z,2.77
2019-05-25T09:27:37.655Z,2.63
2019-05-25T09:30:10.051Z,2.77
2019-05-25T09:32:38.970Z,2.90
2019-05-25T09:35:08.579Z,4.23
2019-05-25T09:37:37.694Z,4.53
2019-05-25T09:40:08.468Z,3.83
2019-05-25T09:42:37.447Z,3.33
2019-05-25T09:45:08.427Z,2.93
2019-05-25T09:47:37.451Z,3.37
2019-05-25T09:50:07.120Z,3.97
2019-05-25T09:52:36.151Z,3.30
2019-05-25T09:55:11.461Z,2.97
2019-05-25T09:57:41.736Z,3.13
2019-05-25T10:00:12.923Z,3.60
2019-05-25T10:02:42.473Z,3.67
2019-05-25T10:05:12.382Z,3.83
2019-05-25T10:07:41.339Z,3.83
2019-05-25T10:10:11.322Z,3.30
2019-05-25T10:12:40.286Z,3.80
2019-05-25T10:15:11.159Z,3.80
2019-05-25T10:17:40.133Z,3.60
2019-05-25T10:20:10.151Z,3.67
2019-05-25T10:22:39.097Z,3.90
2019-05-25T10:25:09.732Z,3.77
2019-05-25T10:27:38.763Z,4.33
2019-05-25T10:30:08.522Z,4.23
2019-05-25T10:32:37.483Z,3.97
2019-05-25T10:35:08.147Z,4.90
2019-05-25T10:37:37.225Z,4.37
2019-05-25T10:40:07.286Z,4.40
2019-05-25T10:42:36.247Z,4.00
2019-05-25T10:45:06.900Z,4.97
2019-05-25T10:47:35.863Z,4.17
2019-05-25T10:50:09.670Z,4.57
2019-05-25T10:52:38.810Z,4.33
2019-05-25T10:55:11.679Z,4.73
2019-05-25T10:57:40.619Z,4.47
2019-05-25T11:00:11.493Z,4.50
2019-05-25T11:02:40.489Z,4.47
2019-05-25T11:05:13.570Z,4.50
2019-05-25T11:07:42.523Z,4.67
2019-05-25T11:10:11.835Z,4.67
2019-05-25T11:12:40.869Z,4.50
2019-05-25T11:15:11.728Z,4.07
2019-05-25T11:17:40.670Z,4.33
2019-05-25T11:20:10.838Z,4.77
2019-05-25T11:22:39.867Z,4.60
2019-05-25T11:25:09.710Z,4.50
2019-05-25T11:27:38.767Z,5.37
2019-05-25T11:30:10.352Z,4.43
2019-05-25T11:32:39.609Z,5.03
2019-05-25T11:35:09.105Z,4.83
2019-05-25T11:37:38.044Z,4.63
2019-05-25T11:40:08.622Z,4.97
2019-05-25T11:42:37.663Z,5.13
2019-05-25T11:45:08.466Z,5.23
2019-05-25T11:47:37.394Z,4.80
2019-05-25T11:50:08.068Z,5.03
2019-05-25T11:52:37.156Z,4.80
2019-05-25T11:55:08.121Z,4.93
2019-05-25T11:57:37.105Z,4.87
2019-05-25T12:00:23.568Z,4.80
2019-05-25T12:02:39.832Z,4.50
2019-05-25T12:05:09.598Z,5.10
2019-05-25T12:07:38.644Z,5.00
2019-05-25T12:10:08.634Z,4.90
2019-05-25T12:12:37.641Z,5.00
2019-05-25T12:15:08.399Z,4.87
2019-05-25T12:17:37.652Z,4.80
2019-05-25T12:20:07.442Z,5.77
2019-05-25T12:22:36.417Z,5.30
2019-05-25T12:25:08.347Z,4.47
2019-05-25T12:27:37.354Z,4.93
2019-05-25T12:30:08.358Z,4.60
2019-05-25T12:32:37.328Z,4.40
2019-05-25T12:35:06.919Z,4.87
2019-05-25T12:37:36.020Z,5.30
2019-05-25T12:40:08.486Z,4.93
2019-05-25T12:42:37.440Z,4.50
2019-05-25T12:45:07.479Z,4.87
2019-05-25T12:47:36.518Z,4.67
2019-05-25T12:50:07.372Z,4.93
2019-05-25T12:52:36.337Z,5.37
2019-05-25T12:55:06.195Z,4.60
2019-05-25T12:57:35.177Z,4.47
2019-05-25T13:00:15.548Z,4.33
2019-05-25T13:02:37.337Z,4.60
2019-05-25T13:05:06.598Z,4.60
2019-05-25T13:07:35.662Z,4.13
2019-05-25T13:10:06.791Z,4.60
2019-05-25T13:12:35.801Z,4.87
2019-05-25T13:15:06.434Z,4.93
2019-05-25T13:17:35.423Z,5.13
2019-05-25T13:20:05.838Z,5.07
2019-05-25T13:22:34.802Z,4.70
2019-05-25T13:25:07.899Z,4.43
2019-05-25T13:27:36.866Z,5.03
2019-05-25T13:30:07.642Z,4.23
2019-05-25T13:32:36.608Z,4.30
2019-05-25T13:35:07.286Z,4.50
2019-05-25T13:37:36.401Z,4.03
2019-05-25T13:40:07.578Z,5.87
2019-05-25T13:42:36.696Z,4.63
2019-05-25T13:45:07.564Z,4.00
2019-05-25T13:47:36.700Z,4.43
2019-05-25T13:50:08.711Z,4.87
2019-05-25T13:52:37.630Z,5.37
2019-05-25T13:55:27.606Z,5.07
2019-05-25T13:57:56.632Z,5.30
2019-05-25T14:00:25.715Z,4.43
2019-05-25T14:02:54.643Z,4.50
2019-05-25T14:05:23.646Z,3.93
2019-05-25T14:07:52.641Z,4.80
2019-05-25T14:10:21.598Z,4.80
2019-05-25T14:12:50.543Z,4.53
2019-05-25T14:15:19.586Z,4.00
2019-05-25T14:17:48.497Z,4.33
2019-05-25T14:20:17.718Z,4.30
2019-05-25T14:22:46.626Z,4.10
2019-05-25T14:25:15.690Z,4.37
2019-05-25T14:27:44.619Z,3.90
2019-05-25T14:30:14.240Z,4.07
2019-05-25T14:32:43.270Z,3.73
2019-05-25T14:35:12.458Z,4.07
2019-05-25T14:37:41.406Z,4.93
2019-05-25T14:40:11.879Z,4.00
2019-05-25T14:42:40.910Z,4.60
2019-05-25T14:45:10.802Z,4.37
2019-05-25T14:47:39.731Z,4.40
2019-05-25T14:50:09.334Z,4.30
2019-05-25T14:52:38.276Z,5.57
2019-05-25T14:55:08.822Z,4.07
2019-05-25T14:57:37.757Z,3.57
2019-05-25T15:00:07.919Z,3.77
2019-05-25T15:02:36.990Z,4.07
2019-05-25T15:05:06.849Z,4.10
2019-05-25T15:07:35.915Z,3.90
2019-05-25T15:10:08.480Z,3.60
2019-05-25T15:12:37.397Z,3.90
2019-05-25T15:15:11.000Z,3.27
2019-05-25T15:17:42.350Z,3.90
2019-05-25T15:20:11.058Z,3.20
2019-05-25T15:22:40.010Z,4.30
2019-05-25T15:25:09.727Z,3.90
2019-05-25T15:27:38.826Z,4.30
2019-05-25T15:30:08.387Z,3.53
2019-05-25T15:32:37.414Z,4.20
2019-05-25T15:35:09.413Z,3.40
2019-05-25T15:37:38.370Z,3.33
2019-05-25T15:40:12.321Z,3.53
2019-05-25T15:42:41.258Z,3.00
2019-05-25T15:45:10.783Z,2.87
2019-05-25T15:47:39.734Z,3.00
2019-05-25T15:50:11.296Z,3.37
2019-05-25T15:52:40.354Z,3.20
2019-05-25T15:55:09.857Z,2.83
2019-05-25T15:57:38.930Z,3.47
2019-05-25T16:00:13.207Z,3.00
2019-05-25T16:02:42.294Z,2.70
2019-05-25T16:05:12.674Z,2.40
2019-05-25T16:07:44.759Z,2.50
2019-05-25T16:10:14.069Z,2.27
2019-05-25T16:12:43.031Z,2.50
2019-05-25T16:15:13.086Z,2.60
2019-05-25T16:17:42.193Z,2.57
2019-05-25T16:20:11.568Z,2.10
2019-05-25T16:22:40.615Z,2.20
2019-05-25T16:25:09.852Z,2.07
2019-05-25T16:27:38.787Z,1.90
2019-05-25T16:30:08.198Z,1.73
2019-05-25T16:33:10.075Z,1.77
2019-05-25T16:35:08.145Z,2.60
2019-05-25T16:37:37.490Z,1.70
2019-05-25T16:40:07.562Z,2.03
2019-05-25T16:42:36.540Z,2.43
2019-05-25T16:45:07.786Z,1.80
2019-05-25T16:47:36.731Z,1.83
2019-05-25T16:50:08.582Z,1.67
2019-05-25T16:52:37.613Z,1.93
2019-05-25T16:55:07.470Z,1.43
2019-05-25T16:57:36.389Z,1.60
2019-05-25T17:00:08.498Z,2.00
2019-05-25T17:02:37.606Z,1.73
2019-05-25T17:05:07.297Z,1.80
2019-05-25T17:07:36.214Z,1.97
2019-05-25T17:10:06.428Z,1.60
2019-05-25T17:12:35.409Z,1.67
2019-05-25T17:15:07.263Z,1.40
2019-05-25T17:17:36.193Z,1.30
2019-05-25T17:20:06.295Z,1.30
2019-05-25T17:22:35.220Z,1.40
2019-05-25T17:25:05.918Z,1.40
2019-05-25T17:27:34.859Z,1.67
2019-05-25T17:30:06.414Z,1.60
2019-05-25T17:32:35.438Z,1.47
2019-05-25T17:35:05.850Z,1.60
2019-05-25T17:37:34.858Z,1.47
2019-05-25T17:40:06.866Z,1.40
2019-05-25T17:42:35.793Z,1.80
2019-05-25T17:45:06.173Z,1.47
2019-05-25T17:47:35.177Z,1.50
2019-05-25T17:50:05.984Z,1.40
2019-05-25T17:52:35.010Z,1.70
2019-05-25T17:55:07.743Z,1.47
2019-05-25T17:57:36.750Z,1.40
2019-05-25T18:00:07.805Z,1.23
2019-05-25T18:02:36.743Z,2.00
2019-05-25T18:05:08.098Z,1.67
2019-05-25T18:07:37.030Z,1.60
2019-05-25T18:10:06.998Z,1.67
2019-05-25T18:12:35.974Z,1.20
2019-05-25T18:15:10.458Z,1.47
2019-05-25T18:17:58.833Z,1.70
2019-05-25T18:20:28.551Z,1.67
2019-05-25T18:22:57.580Z,1.57
2019-05-25T18:25:26.563Z,1.40
2019-05-25T18:27:55.646Z,1.20
2019-05-25T18:30:25.128Z,1.57
2019-05-25T18:32:54.523Z,1.73
2019-05-25T18:35:23.457Z,1.50
2019-05-25T18:37:52.439Z,1.70
2019-05-25T18:40:21.805Z,1.70
2019-05-25T18:42:50.915Z,1.57
2019-05-25T18:45:19.967Z,1.40
2019-05-25T18:47:48.915Z,1.40
2019-05-25T18:50:18.305Z,1.10
2019-05-25T18:52:47.265Z,1.50
2019-05-25T18:55:16.650Z,1.43
2019-05-25T18:57:45.589Z,1.50
2019-05-25T19:00:15.027Z,1.10
2019-05-25T19:02:44.055Z,1.40
2019-05-25T19:05:13.330Z,1.60
2019-05-25T19:07:42.298Z,1.77
2019-05-25T19:10:11.914Z,1.63
2019-05-25T19:12:41.004Z,1.47
2019-05-25T19:15:10.649Z,1.60
2019-05-25T19:17:39.687Z,1.77
2019-05-25T19:20:09.786Z,1.60
2019-05-25T19:22:38.865Z,1.60
2019-05-25T19:25:09.044Z,1.67
2019-05-25T19:27:38.051Z,1.73
2019-05-25T19:30:08.263Z,1.90
2019-05-25T19:32:37.281Z,1.70
2019-05-25T19:35:06.886Z,2.10
2019-05-25T19:37:35.833Z,1.90
2019-05-25T19:40:09.550Z,1.90
2019-05-25T19:42:38.684Z,2.00
2019-05-25T19:45:09.359Z,2.03
2019-05-25T19:47:48.669Z,1.90
2019-05-25T19:50:18.632Z,1.73
2019-05-25T19:52:47.648Z,1.60
2019-05-25T19:55:16.811Z,2.10
2019-05-25T19:57:46.752Z,1.67
2019-05-25T20:00:16.174Z,1.70
2019-05-25T20:02:45.105Z,2.20
2019-05-25T20:05:17.303Z,2.07
2019-05-25T20:07:46.290Z,2.10
2019-05-25T20:10:16.265Z,2.13
2019-05-25T20:12:45.312Z,1.70
2019-05-25T20:15:14.619Z,2.03
2019-05-25T20:17:46.011Z,2.10
2019-05-25T20:20:15.627Z,2.37
2019-05-25T20:22:44.630Z,2.17
2019-05-25T20:25:13.743Z,2.30
2019-05-25T20:27:42.871Z,2.07
2019-05-25T20:30:12.441Z,2.10
2019-05-25T20:32:41.478Z,2.20
2019-05-25T20:35:10.558Z,2.07
2019-05-25T20:37:39.536Z,1.97
2019-05-25T20:40:14.519Z,2.63
2019-05-25T20:42:43.680Z,2.57
2019-05-25T20:45:13.116Z,2.40
2019-05-25T20:47:42.766Z,2.50
2019-05-25T20:50:11.827Z,2.77
2019-05-25T20:52:40.747Z,2.57
2019-05-25T20:55:10.888Z,2.30
2019-05-25T20:57:39.857Z,2.07
2019-05-25T21:00:09.228Z,2.40
2019-05-25T21:02:38.195Z,2.17
2019-05-25T21:05:07.631Z,2.30
2019-05-25T21:07:36.643Z,1.93
2019-05-25T21:10:09.099Z,2.30
2019-05-25T21:12:38.538Z,2.40
2019-05-25T21:15:08.029Z,2.10
2019-05-25T21:17:37.111Z,2.37
2019-05-25T21:20:36.053Z,2.20
2019-05-25T21:23:05.070Z,2.60
2019-05-25T21:25:34.038Z,2.70
2019-05-25T21:28:03.030Z,2.63
2019-05-25T21:30:32.277Z,3.10
2019-05-25T21:33:01.231Z,2.63
2019-05-25T21:35:30.169Z,2.90
2019-05-25T21:37:59.118Z,3.30
2019-05-25T21:40:28.049Z,3.10
2019-05-25T21:42:57.020Z,2.87
2019-05-25T21:45:25.975Z,2.90
2019-05-25T21:47:56.471Z,2.80
2019-05-25T21:50:25.730Z,2.60
2019-05-25T21:52:54.682Z,2.43
2019-05-25T21:55:23.633Z,2.43
2019-05-25T21:57:52.558Z,2.50
2019-05-25T22:00:24.869Z,2.50
2019-05-25T22:02:53.948Z,2.50
2019-05-25T22:05:24.458Z,2.67
2019-05-25T22:07:53.454Z,2.70
2019-05-25T22:10:22.426Z,2.37
2019-05-25T22:12:51.350Z,2.77
2019-05-25T22:15:20.363Z,2.97
2019-05-25T22:17:49.288Z,2.63
2019-05-25T22:20:18.426Z,2.40
2019-05-25T22:22:47.374Z,2.67
2019-05-25T22:25:16.766Z,2.67
2019-05-25T22:27:45.879Z,2.80
2019-05-25T22:30:14.999Z,2.80
2019-05-25T22:32:43.927Z,2.50
2019-05-25T22:35:13.492Z,2.67
2019-05-25T22:37:42.477Z,2.70
2019-05-25T22:40:12.081Z,2.80
2019-05-25T22:42:41.070Z,2.70
2019-05-25T22:45:10.405Z,2.90
2019-05-25T22:47:39.361Z,2.67
2019-05-25T22:50:08.666Z,2.60
2019-05-25T22:52:37.662Z,2.70
2019-05-25T22:55:08.014Z,2.27
2019-05-25T22:57:36.981Z,2.57
2019-05-25T23:00:11.190Z,2.37
2019-05-25T23:02:40.225Z,2.40
2019-05-25T23:05:09.681Z,2.50
2019-05-25T23:07:38.729Z,2.57
2019-05-25T23:10:09.729Z,2.60
2019-05-25T23:12:38.739Z,2.50
2019-05-25T23:15:08.699Z,2.50
2019-05-25T23:17:37.992Z,2.50
2019-05-25T23:20:09.161Z,2.33
2019-05-25T23:22:38.198Z,2.67
2019-05-25T23:25:07.568Z,2.33
2019-05-25T23:27:36.509Z,2.30
2019-05-25T23:30:07.660Z,2.20
2019-05-25T23:32:36.624Z,2.40
2019-05-25T23:35:05.963Z,2.30
2019-05-25T23:37:34.970Z,2.33
2019-05-25T23:40:06.641Z,2.33
2019-05-25T23:42:35.671Z,2.50
2019-05-25T23:45:06.244Z,2.70
2019-05-25T23:47:35.424Z,2.17
2019-05-25T23:50:07.453Z,2.43
2019-05-25T23:52:36.529Z,2.50
2019-05-25T23:55:06.912Z,2.57
2019-05-25T23:57:35.931Z,2.43
